sensor_id;sensor_type;location;lat;lon;timestamp;temperature;humidity
2363;DHT22;64265;51.664;7.626;2024-02-26T00:01:45;22.00;70.50
2363;DHT22;64265;51.664;7.626;2024-02-26T00:04:17;22.00;70.60
2363;DHT22;64265;51.664;7.626;2024-02-26T00:06:43;22.00;70.50
2363;DHT22;64265;51.664;7.626;2024-02-26T00:09:25;22.00;70.50
2363;DHT22;64265;51.664;7.626;2024-02-26T00:11:58;22.00;70.60
2363;DHT22;64265;51.664;7.626;2024-02-26T00:14:38;22.00;70.70
2363;DHT22;64265;51.664;7.626;2024-02-26T00:17:06;22.00;70.60
2363;DHT22;64265;51.664;7.626;2024-02-26T00:19:35;21.90;70.50
2363;DHT22;64265;51.664;7.626;2024-02-26T00:22:04;21.90;70.50
2363;DHT22;64265;51.664;7.626;2024-02-26T00:24:46;21.90;70.60
2363;DHT22;64265;51.664;7.626;2024-02-26T00:27:16;21.90;70.50
2363;DHT22;64265;51.664;7.626;2024-02-26T00:29:58;21.90;70.50
2363;DHT22;64265;51.664;7.626;2024-02-26T00:32:35;21.90;70.50
2363;DHT22;64265;51.664;7.626;2024-02-26T00:35:06;21.90;70.50
2363;DHT22;64265;51.664;7.626;2024-02-26T00:37:36;21.90;70.50
2363;DHT22;64265;51.664;7.626;2024-02-26T00:40:15;21.90;70.60
2363;DHT22;64265;51.664;7.626;2024-02-26T00:42:50;21.80;70.50
2363;DHT22;64265;51.664;7.626;2024-02-26T00:45:22;21.80;70.60
2363;DHT22;64265;51.664;7.626;2024-02-26T00:47:51;21.80;70.60
2363;DHT22;64265;51.664;7.626;2024-02-26T00:50:24;21.80;70.60
2363;DHT22;64265;51.664;7.626;2024-02-26T00:52:52;21.80;70.60
2363;DHT22;64265;51.664;7.626;2024-02-26T00:55:29;21.70;70.50
2363;DHT22;64265;51.664;7.626;2024-02-26T00:57:57;21.70;70.60
2363;DHT22;64265;51.664;7.626;2024-02-26T01:00:36;21.70;70.50
2363;DHT22;64265;51.664;7.626;2024-02-26T01:03:09;21.70;70.50
2363;DHT22;64265;51.664;7.626;2024-02-26T01:05:40;21.70;70.50
2363;DHT22;64265;51.664;7.626;2024-02-26T01:08:14;21.70;70.60
2363;DHT22;64265;51.664;7.626;2024-02-26T01:10:49;21.70;70.60
2363;DHT22;64265;51.664;7.626;2024-02-26T01:13:33;21.60;70.50
2363;DHT22;64265;51.664;7.626;2024-02-26T01:16:00;21.60;70.60
2363;DHT22;64265;51.664;7.626;2024-02-26T01:18:36;21.60;70.60
2363;DHT22;64265;51.664;7.626;2024-02-26T01:21:06;21.60;70.60
2363;DHT22;64265;51.664;7.626;2024-02-26T01:23:40;21.60;70.60
2363;DHT22;64265;51.664;7.626;2024-02-26T01:26:13;21.60;70.70
2363;DHT22;64265;51.664;7.626;2024-02-26T01:31:26;21.60;70.70
2363;DHT22;64265;51.664;7.626;2024-02-26T01:34:12;21.50;70.60
2363;DHT22;64265;51.664;7.626;2024-02-26T01:36:44;21.60;71.20
2363;DHT22;64265;51.664;7.626;2024-02-26T01:39:16;21.50;70.70
2363;DHT22;64265;51.664;7.626;2024-02-26T01:42:02;21.50;70.70
2363;DHT22;64265;51.664;7.626;2024-02-26T01:44:36;21.50;70.80
2363;DHT22;64265;51.664;7.626;2024-02-26T01:47:13;21.40;70.70
2363;DHT22;64265;51.664;7.626;2024-02-26T01:49:46;21.40;70.70
2363;DHT22;64265;51.664;7.626;2024-02-26T01:52:19;21.50;70.80
2363;DHT22;64265;51.664;7.626;2024-02-26T01:54:47;21.40;70.70
2363;DHT22;64265;51.664;7.626;2024-02-26T01:57:18;21.40;70.80
2363;DHT22;64265;51.664;7.626;2024-02-26T01:59:51;21.40;70.80
2363;DHT22;64265;51.664;7.626;2024-02-26T02:02:19;21.40;70.90
2363;DHT22;64265;51.664;7.626;2024-02-26T02:04:46;21.40;70.90
2363;DHT22;64265;51.664;7.626;2024-02-26T02:07:18;21.40;70.90
2363;DHT22;64265;51.664;7.626;2024-02-26T02:09:53;21.40;70.90
2363;DHT22;64265;51.664;7.626;2024-02-26T02:12:23;21.30;70.90
2363;DHT22;64265;51.664;7.626;2024-02-26T02:14:53;21.30;70.80
2363;DHT22;64265;51.664;7.626;2024-02-26T02:17:25;21.30;70.90
2363;DHT22;64265;51.664;7.626;2024-02-26T02:19:57;21.30;70.90
2363;DHT22;64265;51.664;7.626;2024-02-26T02:22:31;21.30;71.00
2363;DHT22;64265;51.664;7.626;2024-02-26T02:25:05;21.30;71.00
2363;DHT22;64265;51.664;7.626;2024-02-26T02:27:36;21.30;71.10
2363;DHT22;64265;51.664;7.626;2024-02-26T02:30:10;21.20;70.90
2363;DHT22;64265;51.664;7.626;2024-02-26T02:32:42;21.30;71.10
2363;DHT22;64265;51.664;7.626;2024-02-26T02:35:15;21.30;71.10
2363;DHT22;64265;51.664;7.626;2024-02-26T02:37:43;21.30;71.90
2363;DHT22;64265;51.664;7.626;2024-02-26T02:40:16;21.30;71.10
2363;DHT22;64265;51.664;7.626;2024-02-26T02:42:46;21.20;71.00
2363;DHT22;64265;51.664;7.626;2024-02-26T02:45:13;21.20;71.10
2363;DHT22;64265;51.664;7.626;2024-02-26T02:47:44;21.20;71.10
2363;DHT22;64265;51.664;7.626;2024-02-26T02:50:10;21.20;71.20
2363;DHT22;64265;51.664;7.626;2024-02-26T02:52:39;21.20;71.10
2363;DHT22;64265;51.664;7.626;2024-02-26T02:55:14;21.20;71.20
2363;DHT22;64265;51.664;7.626;2024-02-26T02:57:43;21.20;71.20
2363;DHT22;64265;51.664;7.626;2024-02-26T03:00:11;21.20;71.30
2363;DHT22;64265;51.664;7.626;2024-02-26T03:02:40;21.20;71.30
2363;DHT22;64265;51.664;7.626;2024-02-26T03:05:11;21.20;71.20
2363;DHT22;64265;51.664;7.626;2024-02-26T03:07:38;21.10;71.20
2363;DHT22;64265;51.664;7.626;2024-02-26T03:10:05;21.10;71.20
2363;DHT22;64265;51.664;7.626;2024-02-26T03:12:39;21.10;71.20
2363;DHT22;64265;51.664;7.626;2024-02-26T03:15:09;21.20;71.30
2363;DHT22;64265;51.664;7.626;2024-02-26T03:17:44;21.10;71.20
2363;DHT22;64265;51.664;7.626;2024-02-26T03:20:11;21.10;71.20
2363;DHT22;64265;51.664;7.626;2024-02-26T03:22:44;21.10;71.20
2363;DHT22;64265;51.664;7.626;2024-02-26T03:25:13;21.10;71.20
2363;DHT22;64265;51.664;7.626;2024-02-26T03:27:46;21.10;71.20
2363;DHT22;64265;51.664;7.626;2024-02-26T03:30:18;21.10;71.20
2363;DHT22;64265;51.664;7.626;2024-02-26T03:32:45;21.10;71.30
2363;DHT22;64265;51.664;7.626;2024-02-26T03:35:13;21.10;71.20
2363;DHT22;64265;51.664;7.626;2024-02-26T03:37:40;21.10;71.30
2363;DHT22;64265;51.664;7.626;2024-02-26T03:40:09;21.10;71.40
2363;DHT22;64265;51.664;7.626;2024-02-26T03:42:38;21.10;71.30
2363;DHT22;64265;51.664;7.626;2024-02-26T03:45:10;21.00;71.20
2363;DHT22;64265;51.664;7.626;2024-02-26T03:47:43;21.00;71.40
2363;DHT22;64265;51.664;7.626;2024-02-26T03:50:14;21.00;71.40
2363;DHT22;64265;51.664;7.626;2024-02-26T03:52:44;21.00;71.40
2363;DHT22;64265;51.664;7.626;2024-02-26T03:55:15;21.00;71.40
2363;DHT22;64265;51.664;7.626;2024-02-26T03:57:46;21.00;71.40
2363;DHT22;64265;51.664;7.626;2024-02-26T04:00:18;21.00;71.30
2363;DHT22;64265;51.664;7.626;2024-02-26T04:02:48;21.00;71.40
2363;DHT22;64265;51.664;7.626;2024-02-26T04:05:23;21.00;71.40
2363;DHT22;64265;51.664;7.626;2024-02-26T04:08:01;21.00;71.40
2363;DHT22;64265;51.664;7.626;2024-02-26T04:10:31;21.00;71.40
2363;DHT22;64265;51.664;7.626;2024-02-26T04:13:09;21.00;71.50
2363;DHT22;64265;51.664;7.626;2024-02-26T04:15:37;20.90;71.40
2363;DHT22;64265;51.664;7.626;2024-02-26T04:18:12;20.90;71.40
2363;DHT22;64265;51.664;7.626;2024-02-26T04:20:59;20.90;71.40
2363;DHT22;64265;51.664;7.626;2024-02-26T04:23:26;20.90;71.40
2363;DHT22;64265;51.664;7.626;2024-02-26T04:26:01;20.90;71.40
2363;DHT22;64265;51.664;7.626;2024-02-26T04:28:36;20.90;71.40
2363;DHT22;64265;51.664;7.626;2024-02-26T04:31:09;20.90;71.50
2363;DHT22;64265;51.664;7.626;2024-02-26T04:33:46;20.90;71.50
2363;DHT22;64265;51.664;7.626;2024-02-26T04:36:20;20.90;71.40
2363;DHT22;64265;51.664;7.626;2024-02-26T04:38:51;20.90;71.50
2363;DHT22;64265;51.664;7.626;2024-02-26T04:41:24;20.90;71.40
2363;DHT22;64265;51.664;7.626;2024-02-26T04:43:59;20.90;71.50
2363;DHT22;64265;51.664;7.626;2024-02-26T04:46:39;20.90;71.50
2363;DHT22;64265;51.664;7.626;2024-02-26T04:49:08;20.90;71.50
2363;DHT22;64265;51.664;7.626;2024-02-26T04:51:50;20.90;71.40
2363;DHT22;64265;51.664;7.626;2024-02-26T04:54:16;20.90;71.50
2363;DHT22;64265;51.664;7.626;2024-02-26T04:56:45;20.90;71.40
2363;DHT22;64265;51.664;7.626;2024-02-26T04:59:16;20.90;71.50
2363;DHT22;64265;51.664;7.626;2024-02-26T05:01:48;20.90;71.50
2363;DHT22;64265;51.664;7.626;2024-02-26T05:04:20;20.80;71.40
2363;DHT22;64265;51.664;7.626;2024-02-26T05:06:52;20.80;71.40
2363;DHT22;64265;51.664;7.626;2024-02-26T05:09:20;20.80;71.40
2363;DHT22;64265;51.664;7.626;2024-02-26T05:11:52;20.80;71.50
2363;DHT22;64265;51.664;7.626;2024-02-26T05:14:26;20.80;71.50
2363;DHT22;64265;51.664;7.626;2024-02-26T05:16:58;20.80;71.50
2363;DHT22;64265;51.664;7.626;2024-02-26T05:19:32;20.80;71.40
2363;DHT22;64265;51.664;7.626;2024-02-26T05:22:07;20.80;71.40
2363;DHT22;64265;51.664;7.626;2024-02-26T05:24:37;20.80;71.40
2363;DHT22;64265;51.664;7.626;2024-02-26T05:27:25;20.80;71.50
2363;DHT22;64265;51.664;7.626;2024-02-26T05:29:52;20.80;71.50
2363;DHT22;64265;51.664;7.626;2024-02-26T05:32:22;20.70;71.40
2363;DHT22;64265;51.664;7.626;2024-02-26T05:34:51;20.80;71.50
2363;DHT22;64265;51.664;7.626;2024-02-26T05:37:20;20.80;71.40
2363;DHT22;64265;51.664;7.626;2024-02-26T05:40:07;20.80;71.50
2363;DHT22;64265;51.664;7.626;2024-02-26T05:42:44;20.80;71.40
2363;DHT22;64265;51.664;7.626;2024-02-26T05:45:11;20.70;71.40
2363;DHT22;64265;51.664;7.626;2024-02-26T05:47:45;20.80;71.50
2363;DHT22;64265;51.664;7.626;2024-02-26T05:50:12;20.70;71.40
2363;DHT22;64265;51.664;7.626;2024-02-26T05:52:42;20.80;71.40
2363;DHT22;64265;51.664;7.626;2024-02-26T05:55:12;20.70;71.40
2363;DHT22;64265;51.664;7.626;2024-02-26T05:57:42;20.70;71.40
2363;DHT22;64265;51.664;7.626;2024-02-26T06:00:10;20.70;71.30
2363;DHT22;64265;51.664;7.626;2024-02-26T06:02:43;20.70;71.40
2363;DHT22;64265;51.664;7.626;2024-02-26T06:05:15;20.70;71.50
2363;DHT22;64265;51.664;7.626;2024-02-26T06:07:48;20.70;71.40
2363;DHT22;64265;51.664;7.626;2024-02-26T06:10:15;20.70;71.40
2363;DHT22;64265;51.664;7.626;2024-02-26T06:12:43;20.70;71.40
2363;DHT22;64265;51.664;7.626;2024-02-26T06:15:13;20.70;71.40
2363;DHT22;64265;51.664;7.626;2024-02-26T06:17:43;20.70;71.40
2363;DHT22;64265;51.664;7.626;2024-02-26T06:20:13;20.70;71.50
2363;DHT22;64265;51.664;7.626;2024-02-26T06:22:50;20.70;71.50
2363;DHT22;64265;51.664;7.626;2024-02-26T06:25:33;20.70;71.50
2363;DHT22;64265;51.664;7.626;2024-02-26T06:28:04;20.70;71.50
2363;DHT22;64265;51.664;7.626;2024-02-26T06:30:37;20.70;71.50
2363;DHT22;64265;51.664;7.626;2024-02-26T06:33:07;20.60;71.30
2363;DHT22;64265;51.664;7.626;2024-02-26T06:35:34;20.70;71.60
2363;DHT22;64265;51.664;7.626;2024-02-26T06:38:09;20.70;71.60
2363;DHT22;64265;51.664;7.626;2024-02-26T06:40:41;20.70;71.60
2363;DHT22;64265;51.664;7.626;2024-02-26T06:43:09;20.70;71.60
2363;DHT22;64265;51.664;7.626;2024-02-26T06:45:41;20.60;71.50
2363;DHT22;64265;51.664;7.626;2024-02-26T06:48:28;20.60;71.50
2363;DHT22;64265;51.664;7.626;2024-02-26T06:50:58;20.60;71.50
2363;DHT22;64265;51.664;7.626;2024-02-26T06:53:32;20.60;71.30
2363;DHT22;64265;51.664;7.626;2024-02-26T06:55:58;20.60;71.40
2363;DHT22;64265;51.664;7.626;2024-02-26T06:58:25;20.60;71.50
2363;DHT22;64265;51.664;7.626;2024-02-26T07:00:52;20.60;71.50
2363;DHT22;64265;51.664;7.626;2024-02-26T07:03:23;20.60;71.40
2363;DHT22;64265;51.664;7.626;2024-02-26T07:05:51;20.60;71.40
2363;DHT22;64265;51.664;7.626;2024-02-26T07:08:31;20.60;72.20
2363;DHT22;64265;51.664;7.626;2024-02-26T07:11:07;20.60;71.30
2363;DHT22;64265;51.664;7.626;2024-02-26T07:13:37;20.60;71.40
2363;DHT22;64265;51.664;7.626;2024-02-26T07:16:06;20.60;71.30
2363;DHT22;64265;51.664;7.626;2024-02-26T07:18:58;20.60;71.20
2363;DHT22;64265;51.664;7.626;2024-02-26T07:21:28;20.60;71.30
2363;DHT22;64265;51.664;7.626;2024-02-26T07:24:04;20.60;71.40
2363;DHT22;64265;51.664;7.626;2024-02-26T07:26:36;20.60;71.50
2363;DHT22;64265;51.664;7.626;2024-02-26T07:29:08;20.60;71.60
2363;DHT22;64265;51.664;7.626;2024-02-26T07:31:40;20.60;72.50
2363;DHT22;64265;51.664;7.626;2024-02-26T07:34:12;20.60;71.80
2363;DHT22;64265;51.664;7.626;2024-02-26T07:36:51;20.60;71.70
2363;DHT22;64265;51.664;7.626;2024-02-26T07:39:24;20.60;71.80
2363;DHT22;64265;51.664;7.626;2024-02-26T07:41:55;20.60;71.80
2363;DHT22;64265;51.664;7.626;2024-02-26T07:44:26;20.60;71.80
2363;DHT22;64265;51.664;7.626;2024-02-26T07:46:55;20.60;71.70
2363;DHT22;64265;51.664;7.626;2024-02-26T07:49:30;20.70;71.90
2363;DHT22;64265;51.664;7.626;2024-02-26T07:52:04;20.70;71.80
2363;DHT22;64265;51.664;7.626;2024-02-26T07:54:36;20.70;71.90
2363;DHT22;64265;51.664;7.626;2024-02-26T07:57:08;20.70;72.10
2363;DHT22;64265;51.664;7.626;2024-02-26T07:59:40;20.70;72.00
2363;DHT22;64265;51.664;7.626;2024-02-26T08:02:12;20.70;72.00
2363;DHT22;64265;51.664;7.626;2024-02-26T08:04:43;20.70;71.40
2363;DHT22;64265;51.664;7.626;2024-02-26T08:07:17;20.70;71.00
2363;DHT22;64265;51.664;7.626;2024-02-26T08:09:51;20.80;71.50
2363;DHT22;64265;51.664;7.626;2024-02-26T08:12:22;20.80;71.50
2363;DHT22;64265;51.664;7.626;2024-02-26T08:14:50;20.80;71.60
2363;DHT22;64265;51.664;7.626;2024-02-26T08:17:32;20.80;71.80
2363;DHT22;64265;51.664;7.626;2024-02-26T08:20:10;20.80;71.70
2363;DHT22;64265;51.664;7.626;2024-02-26T08:22:36;20.80;71.80
2363;DHT22;64265;51.664;7.626;2024-02-26T08:25:07;20.90;72.00
2363;DHT22;64265;51.664;7.626;2024-02-26T08:27:35;20.80;71.80
2363;DHT22;64265;51.664;7.626;2024-02-26T08:30:16;20.80;71.80
2363;DHT22;64265;51.664;7.626;2024-02-26T08:32:43;20.80;71.70
2363;DHT22;64265;51.664;7.626;2024-02-26T08:35:18;20.80;71.70
2363;DHT22;64265;51.664;7.626;2024-02-26T08:37:51;20.80;71.80
2363;DHT22;64265;51.664;7.626;2024-02-26T08:40:33;20.80;71.70
2363;DHT22;64265;51.664;7.626;2024-02-26T08:42:59;20.80;71.60
2363;DHT22;64265;51.664;7.626;2024-02-26T08:45:27;20.90;71.70
2363;DHT22;64265;51.664;7.626;2024-02-26T08:47:56;20.80;71.60
2363;DHT22;64265;51.664;7.626;2024-02-26T08:50:28;20.80;71.60
2363;DHT22;64265;51.664;7.626;2024-02-26T08:52:57;20.80;71.60
2363;DHT22;64265;51.664;7.626;2024-02-26T08:55:34;20.80;71.60
2363;DHT22;64265;51.664;7.626;2024-02-26T08:58:03;20.80;71.60
2363;DHT22;64265;51.664;7.626;2024-02-26T09:00:34;20.70;71.50
2363;DHT22;64265;51.664;7.626;2024-02-26T09:03:09;20.80;71.60
2363;DHT22;64265;51.664;7.626;2024-02-26T09:05:45;20.80;71.70
2363;DHT22;64265;51.664;7.626;2024-02-26T09:08:11;20.80;71.70
2363;DHT22;64265;51.664;7.626;2024-02-26T09:10:54;20.70;71.70
2363;DHT22;64265;51.664;7.626;2024-02-26T09:13:20;20.80;71.80
2363;DHT22;64265;51.664;7.626;2024-02-26T09:16:01;20.80;71.80
2363;DHT22;64265;51.664;7.626;2024-02-26T09:18:28;20.80;71.90
2363;DHT22;64265;51.664;7.626;2024-02-26T09:21:06;20.90;72.00
2363;DHT22;64265;51.664;7.626;2024-02-26T09:23:36;20.90;72.00
2363;DHT22;64265;51.664;7.626;2024-02-26T09:26:20;20.90;72.30
2363;DHT22;64265;51.664;7.626;2024-02-26T09:28:49;20.90;72.00
2363;DHT22;64265;51.664;7.626;2024-02-26T09:31:19;20.90;71.90
2363;DHT22;64265;51.664;7.626;2024-02-26T09:33:50;20.90;72.00
2363;DHT22;64265;51.664;7.626;2024-02-26T09:36:18;20.90;71.90
2363;DHT22;64265;51.664;7.626;2024-02-26T09:38:49;20.90;71.90
2363;DHT22;64265;51.664;7.626;2024-02-26T09:41:18;20.90;71.80
2363;DHT22;64265;51.664;7.626;2024-02-26T09:44:02;20.90;71.80
2363;DHT22;64265;51.664;7.626;2024-02-26T09:46:33;20.90;72.00
2363;DHT22;64265;51.664;7.626;2024-02-26T09:49:04;20.90;71.80
2363;DHT22;64265;51.664;7.626;2024-02-26T09:51:39;20.90;71.80
2363;DHT22;64265;51.664;7.626;2024-02-26T09:54:18;20.90;71.80
2363;DHT22;64265;51.664;7.626;2024-02-26T09:56:49;20.90;72.00
2363;DHT22;64265;51.664;7.626;2024-02-26T09:59:22;20.90;72.20
2363;DHT22;64265;51.664;7.626;2024-02-26T10:01:53;20.90;72.50
2363;DHT22;64265;51.664;7.626;2024-02-26T10:04:28;20.90;70.10
2363;DHT22;64265;51.664;7.626;2024-02-26T10:06:58;20.80;64.20
2363;DHT22;64265;51.664;7.626;2024-02-26T10:09:28;20.60;61.80
2363;DHT22;64265;51.664;7.626;2024-02-26T10:12:00;20.50;59.20
2363;DHT22;64265;51.664;7.626;2024-02-26T10:14:28;20.30;57.60
2363;DHT22;64265;51.664;7.626;2024-02-26T10:16:55;20.20;57.60
2363;DHT22;64265;51.664;7.626;2024-02-26T10:19:27;20.20;56.90
2363;DHT22;64265;51.664;7.626;2024-02-26T10:21:58;20.10;55.80
2363;DHT22;64265;51.664;7.626;2024-02-26T10:24:35;20.00;55.40
2363;DHT22;64265;51.664;7.626;2024-02-26T10:27:05;20.00;55.40
2363;DHT22;64265;51.664;7.626;2024-02-26T10:29:32;19.90;54.90
2363;DHT22;64265;51.664;7.626;2024-02-26T10:31:59;19.90;54.20
2363;DHT22;64265;51.664;7.626;2024-02-26T10:34:28;19.80;54.70
2363;DHT22;64265;51.664;7.626;2024-02-26T10:36:57;19.70;54.40
2363;DHT22;64265;51.664;7.626;2024-02-26T10:39:25;19.80;55.70
2363;DHT22;64265;51.664;7.626;2024-02-26T10:42:04;19.90;57.00
2363;DHT22;64265;51.664;7.626;2024-02-26T10:44:40;20.10;57.60
2363;DHT22;64265;51.664;7.626;2024-02-26T10:47:07;20.20;58.20
2363;DHT22;64265;51.664;7.626;2024-02-26T10:49:35;20.30;58.80
2363;DHT22;64265;51.664;7.626;2024-02-26T10:52:04;20.40;59.30
2363;DHT22;64265;51.664;7.626;2024-02-26T10:54:56;20.50;59.70
2363;DHT22;64265;51.664;7.626;2024-02-26T10:57:34;20.60;60.00
2363;DHT22;64265;51.664;7.626;2024-02-26T11:00:10;20.60;60.40
2363;DHT22;64265;51.664;7.626;2024-02-26T11:02:44;20.70;61.10
2363;DHT22;64265;51.664;7.626;2024-02-26T11:05:12;20.70;61.50
2363;DHT22;64265;51.664;7.626;2024-02-26T11:07:52;20.80;62.00
2363;DHT22;64265;51.664;7.626;2024-02-26T11:10:27;20.80;62.20
2363;DHT22;64265;51.664;7.626;2024-02-26T11:13:02;20.90;62.60
2363;DHT22;64265;51.664;7.626;2024-02-26T11:15:55;20.90;62.70
2363;DHT22;64265;51.664;7.626;2024-02-26T11:18:30;21.00;63.40
2363;DHT22;64265;51.664;7.626;2024-02-26T11:21:01;21.10;63.50
2363;DHT22;64265;51.664;7.626;2024-02-26T11:23:37;21.00;63.60
2363;DHT22;64265;51.664;7.626;2024-02-26T11:26:07;21.00;63.70
2363;DHT22;64265;51.664;7.626;2024-02-26T11:28:41;21.10;64.00
2363;DHT22;64265;51.664;7.626;2024-02-26T11:31:12;21.10;64.20
2363;DHT22;64265;51.664;7.626;2024-02-26T11:33:48;21.20;64.50
2363;DHT22;64265;51.664;7.626;2024-02-26T11:36:22;21.20;64.60
2363;DHT22;64265;51.664;7.626;2024-02-26T11:38:53;21.20;64.70
2363;DHT22;64265;51.664;7.626;2024-02-26T11:41:22;21.20;64.70
2363;DHT22;64265;51.664;7.626;2024-02-26T11:44:01;21.20;64.90
2363;DHT22;64265;51.664;7.626;2024-02-26T11:46:39;21.30;65.10
2363;DHT22;64265;51.664;7.626;2024-02-26T11:49:31;21.20;65.10
2363;DHT22;64265;51.664;7.626;2024-02-26T11:52:00;21.20;65.10
2363;DHT22;64265;51.664;7.626;2024-02-26T11:54:50;21.30;65.40
2363;DHT22;64265;51.664;7.626;2024-02-26T11:57:22;21.30;65.40
2363;DHT22;64265;51.664;7.626;2024-02-26T11:59:53;21.30;65.60
2363;DHT22;64265;51.664;7.626;2024-02-26T12:02:45;21.30;65.60
2363;DHT22;64265;51.664;7.626;2024-02-26T12:05:20;21.30;65.70
2363;DHT22;64265;51.664;7.626;2024-02-26T12:07:52;21.30;65.80
2363;DHT22;64265;51.664;7.626;2024-02-26T12:10:30;21.30;65.90
2363;DHT22;64265;51.664;7.626;2024-02-26T12:13:02;21.30;66.00
2363;DHT22;64265;51.664;7.626;2024-02-26T12:15:36;21.30;66.00
2363;DHT22;64265;51.664;7.626;2024-02-26T12:18:06;21.40;66.20
2363;DHT22;64265;51.664;7.626;2024-02-26T12:20:39;21.40;66.30
2363;DHT22;64265;51.664;7.626;2024-02-26T12:23:07;21.40;66.40
2363;DHT22;64265;51.664;7.626;2024-02-26T12:25:36;21.30;66.40
2363;DHT22;64265;51.664;7.626;2024-02-26T12:28:08;21.40;66.50
2363;DHT22;64265;51.664;7.626;2024-02-26T12:30:36;21.40;66.60
2363;DHT22;64265;51.664;7.626;2024-02-26T12:33:06;21.40;66.70
2363;DHT22;64265;51.664;7.626;2024-02-26T12:36:01;21.50;66.80
2363;DHT22;64265;51.664;7.626;2024-02-26T12:38:33;21.40;66.70
2363;DHT22;64265;51.664;7.626;2024-02-26T12:41:06;21.50;67.00
2363;DHT22;64265;51.664;7.626;2024-02-26T12:43:33;21.50;67.00
2363;DHT22;64265;51.664;7.626;2024-02-26T12:46:24;21.60;67.20
2363;DHT22;64265;51.664;7.626;2024-02-26T12:49:02;21.50;65.90
2363;DHT22;64265;51.664;7.626;2024-02-26T12:51:29;21.40;66.80
2363;DHT22;64265;51.664;7.626;2024-02-26T12:53:56;21.50;66.80
2363;DHT22;64265;51.664;7.626;2024-02-26T12:56:32;21.60;66.90
2363;DHT22;64265;51.664;7.626;2024-02-26T12:59:05;21.60;67.00
2363;DHT22;64265;51.664;7.626;2024-02-26T13:01:32;21.60;67.00
2363;DHT22;64265;51.664;7.626;2024-02-26T13:04:14;21.70;67.10
2363;DHT22;64265;51.664;7.626;2024-02-26T13:06:54;21.60;67.10
2363;DHT22;64265;51.664;7.626;2024-02-26T13:09:23;21.70;68.00
2363;DHT22;64265;51.664;7.626;2024-02-26T13:12:06;21.70;67.20
2363;DHT22;64265;51.664;7.626;2024-02-26T13:14:45;21.70;67.20
2363;DHT22;64265;51.664;7.626;2024-02-26T13:17:14;21.70;67.30
2363;DHT22;64265;51.664;7.626;2024-02-26T13:19:52;21.70;67.30
2363;DHT22;64265;51.664;7.626;2024-02-26T13:22:21;21.70;67.30
2363;DHT22;64265;51.664;7.626;2024-02-26T13:25:00;21.70;67.40
2363;DHT22;64265;51.664;7.626;2024-02-26T13:27:29;21.70;67.50
2363;DHT22;64265;51.664;7.626;2024-02-26T13:30:05;21.70;67.50
2363;DHT22;64265;51.664;7.626;2024-02-26T13:32:39;21.70;67.50
2363;DHT22;64265;51.664;7.626;2024-02-26T13:35:10;21.90;67.80
2363;DHT22;64265;51.664;7.626;2024-02-26T13:37:40;21.70;67.40
2363;DHT22;64265;51.664;7.626;2024-02-26T13:40:14;21.70;67.30
2363;DHT22;64265;51.664;7.626;2024-02-26T13:42:52;21.70;67.40
2363;DHT22;64265;51.664;7.626;2024-02-26T13:45:22;21.80;67.60
2363;DHT22;64265;51.664;7.626;2024-02-26T13:47:55;21.70;67.50
2363;DHT22;64265;51.664;7.626;2024-02-26T13:50:29;21.80;67.60
2363;DHT22;64265;51.664;7.626;2024-02-26T13:53:08;21.80;67.80
2363;DHT22;64265;51.664;7.626;2024-02-26T13:55:36;21.80;67.70
2363;DHT22;64265;51.664;7.626;2024-02-26T13:58:06;21.80;67.80
2363;DHT22;64265;51.664;7.626;2024-02-26T14:00:39;21.80;67.80
2363;DHT22;64265;51.664;7.626;2024-02-26T14:03:08;21.80;68.10
2363;DHT22;64265;51.664;7.626;2024-02-26T14:05:38;21.80;67.90
2363;DHT22;64265;51.664;7.626;2024-02-26T14:08:06;21.80;67.80
2363;DHT22;64265;51.664;7.626;2024-02-26T14:10:34;21.80;67.80
2363;DHT22;64265;51.664;7.626;2024-02-26T14:13:09;21.80;67.80
2363;DHT22;64265;51.664;7.626;2024-02-26T14:15:38;21.80;67.70
2363;DHT22;64265;51.664;7.626;2024-02-26T14:18:06;21.70;68.00
2363;DHT22;64265;51.664;7.626;2024-02-26T14:20:42;21.70;68.10
2363;DHT22;64265;51.664;7.626;2024-02-26T14:23:12;21.70;68.10
2363;DHT22;64265;51.664;7.626;2024-02-26T14:25:48;21.70;68.00
2363;DHT22;64265;51.664;7.626;2024-02-26T14:28:20;21.80;68.30
2363;DHT22;64265;51.664;7.626;2024-02-26T14:30:50;21.80;68.20
2363;DHT22;64265;51.664;7.626;2024-02-26T14:33:24;21.80;68.20
2363;DHT22;64265;51.664;7.626;2024-02-26T14:35:54;21.80;68.40
2363;DHT22;64265;51.664;7.626;2024-02-26T14:38:20;21.80;69.20
2363;DHT22;64265;51.664;7.626;2024-02-26T14:40:57;21.90;68.50
2363;DHT22;64265;51.664;7.626;2024-02-26T14:43:30;21.90;68.40
2363;DHT22;64265;51.664;7.626;2024-02-26T14:46:02;21.90;68.50
2363;DHT22;64265;51.664;7.626;2024-02-26T14:48:32;21.90;68.50
2363;DHT22;64265;51.664;7.626;2024-02-26T14:51:10;21.90;68.60
2363;DHT22;64265;51.664;7.626;2024-02-26T14:53:39;21.90;68.70
2363;DHT22;64265;51.664;7.626;2024-02-26T14:56:16;21.90;68.70
2363;DHT22;64265;51.664;7.626;2024-02-26T14:58:47;21.90;68.80
2363;DHT22;64265;51.664;7.626;2024-02-26T15:01:14;21.90;68.80
2363;DHT22;64265;51.664;7.626;2024-02-26T15:03:45;21.90;68.70
2363;DHT22;64265;51.664;7.626;2024-02-26T15:06:14;21.90;68.70
2363;DHT22;64265;51.664;7.626;2024-02-26T15:08:47;21.90;68.70
2363;DHT22;64265;51.664;7.626;2024-02-26T15:11:40;21.90;68.80
2363;DHT22;64265;51.664;7.626;2024-02-26T15:14:10;21.90;68.70
2363;DHT22;64265;51.664;7.626;2024-02-26T15:16:40;21.90;68.80
2363;DHT22;64265;51.664;7.626;2024-02-26T15:19:16;21.90;68.80
2363;DHT22;64265;51.664;7.626;2024-02-26T15:21:52;21.90;68.80
2363;DHT22;64265;51.664;7.626;2024-02-26T15:24:29;21.90;68.70
2363;DHT22;64265;51.664;7.626;2024-02-26T15:26:58;22.00;69.00
2363;DHT22;64265;51.664;7.626;2024-02-26T15:29:29;22.00;69.00
2363;DHT22;64265;51.664;7.626;2024-02-26T15:31:57;22.00;69.00
2363;DHT22;64265;51.664;7.626;2024-02-26T15:34:25;22.00;69.00
2363;DHT22;64265;51.664;7.626;2024-02-26T15:36:59;22.00;69.00
2363;DHT22;64265;51.664;7.626;2024-02-26T15:39:27;22.00;69.10
2363;DHT22;64265;51.664;7.626;2024-02-26T15:41:53;21.90;68.90
2363;DHT22;64265;51.664;7.626;2024-02-26T15:44:20;21.90;68.90
2363;DHT22;64265;51.664;7.626;2024-02-26T15:46:49;22.00;69.10
2363;DHT22;64265;51.664;7.626;2024-02-26T15:49:19;22.00;69.00
2363;DHT22;64265;51.664;7.626;2024-02-26T15:51:58;22.00;69.00
2363;DHT22;64265;51.664;7.626;2024-02-26T15:54:27;22.00;69.00
2363;DHT22;64265;51.664;7.626;2024-02-26T15:56:59;22.00;69.10
2363;DHT22;64265;51.664;7.626;2024-02-26T15:59:36;22.00;69.10
2363;DHT22;64265;51.664;7.626;2024-02-26T16:02:08;21.90;69.10
2363;DHT22;64265;51.664;7.626;2024-02-26T16:04:37;22.00;69.10
2363;DHT22;64265;51.664;7.626;2024-02-26T16:07:07;22.00;69.20
2363;DHT22;64265;51.664;7.626;2024-02-26T16:09:43;22.00;69.20
2363;DHT22;64265;51.664;7.626;2024-02-26T16:12:25;22.00;69.20
2363;DHT22;64265;51.664;7.626;2024-02-26T16:15:00;22.00;69.30
2363;DHT22;64265;51.664;7.626;2024-02-26T16:17:30;22.00;69.20
2363;DHT22;64265;51.664;7.626;2024-02-26T16:20:18;22.00;69.50
2363;DHT22;64265;51.664;7.626;2024-02-26T16:22:52;22.00;69.20